createdAt,value
2019-02-23T00:00:21.509Z,25.37
2019-02-23T00:01:57.668Z,30.70
2019-02-23T00:03:33.819Z,28.80
2019-02-23T00:05:10.123Z,36.17
2019-02-23T00:06:46.331Z,32.83
2019-02-23T00:08:25.687Z,40.00
2019-02-23T00:10:01.819Z,38.13
2019-02-23T00:11:39.266Z,35.75
2019-02-23T00:13:16.974Z,35.38
2019-02-23T00:14:53.149Z,36.05
2019-02-23T00:16:29.298Z,25.32
2019-02-23T00:18:05.455Z,38.80
2019-02-23T00:19:41.587Z,26.57
2019-02-23T00:21:17.931Z,36.68
2019-02-23T00:22:54.174Z,27.37
2019-02-23T00:24:30.386Z,41.60
2019-02-23T00:26:06.512Z,21.85
2019-02-23T00:27:42.662Z,36.42
2019-02-23T00:29:18.746Z,27.87
2019-02-23T00:30:54.916Z,43.83
2019-02-23T00:32:31.141Z,26.40
2019-02-23T00:34:07.186Z,26.45
2019-02-23T00:35:43.229Z,30.27
2019-02-23T00:37:19.353Z,27.55
2019-02-23T00:38:56.882Z,27.42
2019-02-23T00:40:34.482Z,25.65
2019-02-23T00:42:10.732Z,26.55
2019-02-23T00:43:46.620Z,24.57
2019-02-23T00:45:22.971Z,26.82
2019-02-23T00:46:59.088Z,23.70
2019-02-23T00:48:35.173Z,25.45
2019-02-23T00:50:11.465Z,20.68
2019-02-23T00:51:47.757Z,18.82
2019-02-23T00:53:23.981Z,24.02
2019-02-23T00:55:00.398Z,22.98
2019-02-23T00:56:36.565Z,20.60
2019-02-23T00:58:12.663Z,20.15
2019-02-23T00:59:48.552Z,21.15
2019-02-23T01:01:24.854Z,19.15
2019-02-23T01:03:02.619Z,21.80
2019-02-23T01:04:38.695Z,23.12
2019-02-23T01:06:14.824Z,21.97
2019-02-23T01:07:50.902Z,22.02
2019-02-23T01:09:27.143Z,21.75
2019-02-23T01:11:03.309Z,19.32
2019-02-23T01:12:39.502Z,20.92
2019-02-23T01:14:15.533Z,24.47
2019-02-23T01:15:51.674Z,26.30
2019-02-23T01:17:27.722Z,22.52
2019-02-23T01:19:03.861Z,26.20
2019-02-23T01:20:39.997Z,32.85
2019-02-23T01:22:16.057Z,24.77
2019-02-23T01:23:53.348Z,24.67
2019-02-23T01:25:29.543Z,26.12
2019-02-23T01:27:05.757Z,22.10
2019-02-23T01:28:41.899Z,19.75
2019-02-23T01:30:18.090Z,28.02
2019-02-23T01:31:54.031Z,20.52
2019-02-23T01:33:30.174Z,25.32
2019-02-23T01:35:07.284Z,22.45
2019-02-23T01:36:43.396Z,21.20
2019-02-23T01:38:19.739Z,17.95
2019-02-23T01:39:55.805Z,18.05
2019-02-23T01:41:32.100Z,21.60
2019-02-23T01:43:08.318Z,22.42
2019-02-23T01:44:44.235Z,20.40
2019-02-23T01:46:20.393Z,26.37
2019-02-23T01:47:56.333Z,21.27
2019-02-23T01:49:32.365Z,13.78
2019-02-23T01:51:08.608Z,22.02
2019-02-23T01:52:44.752Z,22.07
2019-02-23T01:54:20.889Z,21.73
2019-02-23T01:55:57.097Z,24.85
2019-02-23T01:57:33.239Z,26.00
2019-02-23T01:59:09.514Z,22.25
2019-02-23T02:00:45.970Z,18.27
2019-02-23T02:02:22.020Z,20.50
2019-02-23T02:03:58.124Z,18.17
2019-02-23T02:05:34.172Z,21.45
2019-02-23T02:07:10.681Z,22.35
2019-02-23T02:08:47.095Z,19.70
2019-02-23T02:10:23.518Z,19.57
2019-02-23T02:11:59.870Z,19.98
2019-02-23T02:13:36.383Z,21.55
2019-02-23T02:15:15.363Z,22.10
2019-02-23T02:16:51.362Z,27.17
2019-02-23T02:18:27.384Z,19.00
2019-02-23T02:20:11.021Z,19.80
2019-02-23T02:21:41.373Z,18.20
2019-02-23T02:23:17.291Z,21.35
2019-02-23T02:24:53.268Z,20.97
2019-02-23T02:26:29.300Z,21.05
2019-02-23T02:28:05.503Z,17.05
2019-02-23T02:29:41.727Z,20.40
2019-02-23T02:31:17.835Z,23.25
2019-02-23T02:32:53.846Z,20.30
2019-02-23T02:34:29.979Z,19.90
2019-02-23T02:36:06.169Z,20.75
2019-02-23T02:37:42.237Z,22.67
2019-02-23T02:39:18.376Z,26.25
2019-02-23T02:40:54.466Z,21.07
2019-02-23T02:42:30.531Z,18.73
2019-02-23T02:44:06.729Z,18.85
2019-02-23T02:45:42.817Z,18.52
2019-02-23T02:47:18.880Z,18.98
2019-02-23T02:48:55.028Z,18.40
2019-02-23T02:50:31.230Z,21.12
2019-02-23T02:52:07.353Z,20.62
2019-02-23T02:53:43.490Z,20.17
2019-02-23T02:55:19.711Z,20.17
2019-02-23T02:56:57.154Z,19.85
2019-02-23T02:58:34.447Z,17.15
2019-02-23T03:00:12.736Z,23.95
2019-02-23T03:01:48.890Z,21.45
2019-02-23T03:03:24.965Z,23.60
2019-02-23T03:05:00.875Z,22.87
2019-02-23T03:06:38.262Z,23.45
2019-02-23T03:08:14.234Z,26.45
2019-02-23T03:09:50.349Z,22.42
2019-02-23T03:11:26.327Z,23.52
2019-02-23T03:13:02.364Z,17.75
2019-02-23T03:14:38.482Z,24.02
2019-02-23T03:16:14.549Z,20.68
2019-02-23T03:17:50.594Z,23.65
2019-02-23T03:19:26.743Z,23.40
2019-02-23T03:21:02.641Z,25.57
2019-02-23T03:22:40.087Z,22.58
2019-02-23T03:24:17.597Z,22.73
2019-02-23T03:25:53.445Z,22.55
2019-02-23T03:27:29.355Z,21.30
2019-02-23T03:29:05.379Z,21.93
2019-02-23T03:30:41.498Z,26.23
2019-02-23T03:32:17.541Z,25.05
2019-02-23T03:33:53.657Z,27.90
2019-02-23T03:35:29.767Z,22.50
2019-02-23T03:37:05.876Z,22.52
2019-02-23T03:38:41.959Z,22.95
2019-02-23T03:40:17.968Z,18.07
2019-02-23T03:41:54.123Z,19.85
2019-02-23T03:43:30.236Z,21.70
2019-02-23T03:45:07.254Z,15.80
2019-02-23T03:46:43.355Z,24.10
2019-02-23T03:48:19.475Z,22.05
2019-02-23T03:49:55.577Z,23.35
2019-02-23T03:51:31.579Z,23.57
2019-02-23T03:53:07.706Z,25.27
2019-02-23T03:54:43.754Z,25.37
2019-02-23T03:56:20.317Z,21.73
2019-02-23T03:57:56.334Z,30.82
2019-02-23T03:59:32.483Z,21.62
2019-02-23T04:01:08.389Z,25.75
2019-02-23T04:02:44.449Z,28.55
2019-02-23T04:04:20.686Z,19.45
2019-02-23T04:05:56.571Z,26.73
2019-02-23T04:07:32.677Z,26.50
2019-02-23T04:09:08.933Z,23.92
2019-02-23T04:10:44.951Z,25.57
2019-02-23T04:12:21.109Z,19.27
2019-02-23T04:13:57.247Z,28.62
2019-02-23T04:15:33.829Z,24.35
2019-02-23T04:17:09.870Z,34.95
2019-02-23T04:18:46.093Z,31.50
2019-02-23T04:20:22.205Z,32.05
2019-02-23T04:21:58.736Z,30.90
2019-02-23T04:23:34.943Z,30.80
2019-02-23T04:25:11.088Z,29.35
2019-02-23T04:26:46.992Z,35.83
2019-02-23T04:28:23.134Z,28.57
2019-02-23T04:29:59.181Z,26.02
2019-02-23T04:31:35.293Z,28.65
2019-02-23T04:33:11.244Z,27.02
2019-02-23T04:34:47.258Z,29.77
2019-02-23T04:36:23.158Z,30.80
2019-02-23T04:37:59.208Z,28.00
2019-02-23T04:39:35.290Z,19.35
2019-02-23T04:41:12.639Z,27.25
2019-02-23T04:42:48.598Z,26.35
2019-02-23T04:44:24.707Z,24.67
2019-02-23T04:46:00.746Z,22.02
2019-02-23T04:47:37.060Z,21.15
2019-02-23T04:49:13.435Z,26.23
2019-02-23T04:50:49.473Z,25.88
2019-02-23T04:52:25.428Z,27.65
2019-02-23T04:54:01.509Z,27.87
2019-02-23T04:55:37.498Z,27.35
2019-02-23T04:57:13.523Z,27.52
2019-02-23T04:58:49.492Z,26.70
2019-02-23T05:00:25.468Z,25.45
2019-02-23T05:02:01.470Z,19.23
2019-02-23T05:03:37.700Z,20.62
2019-02-23T05:05:13.838Z,23.98
2019-02-23T05:06:50.172Z,19.07
2019-02-23T05:08:26.146Z,22.65
2019-02-23T05:10:02.116Z,23.00
2019-02-23T05:11:38.239Z,20.62
2019-02-23T05:13:14.358Z,25.32
2019-02-23T05:14:50.420Z,18.70
2019-02-23T05:16:26.321Z,23.65
2019-02-23T05:18:02.380Z,23.32
2019-02-23T05:19:38.206Z,24.80
2019-02-23T05:21:25.750Z,23.67
2019-02-23T05:22:51.897Z,17.80
2019-02-23T05:24:27.871Z,21.60
2019-02-23T05:26:04.044Z,27.10
2019-02-23T05:27:40.080Z,21.23
2019-02-23T05:29:16.299Z,29.50
2019-02-23T05:30:52.519Z,32.28
2019-02-23T05:32:28.558Z,23.70
2019-02-23T05:34:04.812Z,22.00
2019-02-23T05:35:40.883Z,29.18
2019-02-23T05:37:16.992Z,30.02
2019-02-23T05:38:53.067Z,20.45
2019-02-23T05:40:29.121Z,29.27
2019-02-23T05:42:05.353Z,22.50
2019-02-23T05:43:41.256Z,32.63
2019-02-23T05:45:17.184Z,37.90
2019-02-23T05:46:53.059Z,23.87
2019-02-23T05:48:29.175Z,33.38
2019-02-23T05:50:08.495Z,54.83
2019-02-23T05:51:44.477Z,46.33
2019-02-23T05:53:21.815Z,40.17
2019-02-23T05:54:57.990Z,29.70
2019-02-23T05:56:34.056Z,24.43
2019-02-23T05:58:09.957Z,22.40
2019-02-23T05:59:46.009Z,31.73
2019-02-23T06:01:22.023Z,24.60
2019-02-23T06:02:58.074Z,24.80
2019-02-23T06:04:34.143Z,23.60
2019-02-23T06:06:10.178Z,22.15
2019-02-23T06:07:46.108Z,25.88
2019-02-23T06:09:23.540Z,24.40
2019-02-23T06:10:59.451Z,23.32
2019-02-23T06:12:35.498Z,24.95
2019-02-23T06:14:11.632Z,22.10
2019-02-23T06:15:47.654Z,26.55
2019-02-23T06:17:23.737Z,25.72
2019-02-23T06:18:59.726Z,27.65
2019-02-23T06:20:35.876Z,23.50
2019-02-23T06:22:11.863Z,34.92
2019-02-23T06:23:47.840Z,35.15
2019-02-23T06:25:23.902Z,61.13
2019-02-23T06:26:59.924Z,72.17
2019-02-23T06:28:37.258Z,55.63
2019-02-23T06:30:14.351Z,87.70
2019-02-23T06:31:50.404Z,92.85
2019-02-23T06:33:26.562Z,65.03
2019-02-23T06:35:02.543Z,56.23
2019-02-23T06:36:38.523Z,54.47
2019-02-23T06:38:14.438Z,44.93
2019-02-23T06:39:50.573Z,47.10
2019-02-23T06:41:26.624Z,51.33
2019-02-23T06:43:02.865Z,53.83
2019-02-23T06:44:38.771Z,50.67
2019-02-23T06:46:14.671Z,51.17
2019-02-23T06:47:52.096Z,51.50
2019-02-23T06:49:28.179Z,41.60
2019-02-23T06:51:04.139Z,32.70
2019-02-23T06:52:40.172Z,28.60
2019-02-23T06:54:16.105Z,26.53
2019-02-23T06:55:52.165Z,33.27
2019-02-23T06:57:28.225Z,16.60
2019-02-23T06:59:04.435Z,33.97
2019-02-23T07:00:40.655Z,26.97
2019-02-23T07:02:16.622Z,28.57
2019-02-23T07:03:52.609Z,39.43
2019-02-23T07:05:28.763Z,34.30
2019-02-23T07:07:04.766Z,19.50
2019-02-23T07:08:40.939Z,22.03
2019-02-23T07:10:17.129Z,33.10
2019-02-23T07:11:53.279Z,31.93
2019-02-23T07:13:29.554Z,34.03
2019-02-23T07:15:08.164Z,29.20
2019-02-23T07:16:44.230Z,27.97
2019-02-23T07:18:20.199Z,11.83
2019-02-23T07:19:56.113Z,21.67
2019-02-23T07:21:32.162Z,23.77
2019-02-23T07:23:08.304Z,33.00
2019-02-23T07:24:44.272Z,26.30
2019-02-23T07:26:20.326Z,26.53
2019-02-23T07:27:56.228Z,26.53
2019-02-23T07:29:32.340Z,22.37
2019-02-23T07:31:08.899Z,26.67
2019-02-23T07:32:45.690Z,25.30
2019-02-23T07:34:21.662Z,18.07
2019-02-23T07:35:57.636Z,20.57
2019-02-23T07:37:33.779Z,13.23
2019-02-23T07:39:10.021Z,12.50
2019-02-23T07:40:46.162Z,19.03
2019-02-23T07:42:22.330Z,19.17
2019-02-23T07:43:58.209Z,24.73
2019-02-23T07:45:34.359Z,23.33
2019-02-23T07:47:11.982Z,22.50
2019-02-23T07:48:49.298Z,11.20
2019-02-23T07:50:25.350Z,26.12
2019-02-23T07:52:01.335Z,19.12
2019-02-23T07:53:37.364Z,25.10
2019-02-23T07:55:13.458Z,27.10
2019-02-23T07:56:49.537Z,21.17
2019-02-23T07:58:25.425Z,26.87
2019-02-23T08:00:01.524Z,33.73
2019-02-23T08:01:38.985Z,23.70
2019-02-23T08:03:16.419Z,32.03
2019-02-23T08:04:52.437Z,25.32
2019-02-23T08:06:28.668Z,26.65
2019-02-23T08:08:04.812Z,24.23
2019-02-23T08:09:40.896Z,31.55
2019-02-23T08:11:16.967Z,34.83
2019-02-23T08:12:52.945Z,34.57
2019-02-23T08:14:30.388Z,24.67
2019-02-23T08:16:06.630Z,24.00
2019-02-23T08:17:42.839Z,7.12
2019-02-23T08:19:18.987Z,20.95
2019-02-23T08:20:56.505Z,23.50
2019-02-23T08:22:37.320Z,17.80
2019-02-23T08:24:10.620Z,24.83
2019-02-23T08:25:46.497Z,27.40
2019-02-23T08:27:22.493Z,26.83
2019-02-23T08:28:58.526Z,19.80
2019-02-23T08:30:36.042Z,19.65
2019-02-23T08:32:12.245Z,22.73
2019-02-23T08:33:48.218Z,20.63
2019-02-23T08:35:24.269Z,19.73
2019-02-23T08:37:00.243Z,18.67
2019-02-23T08:38:36.224Z,17.07
2019-02-23T08:40:17.491Z,22.03
2019-02-23T08:41:53.475Z,21.12
2019-02-23T08:43:29.483Z,19.07
2019-02-23T08:45:07.670Z,18.60
2019-02-23T08:46:43.742Z,19.93
2019-02-23T08:48:19.777Z,19.60
2019-02-23T08:49:55.826Z,24.17
2019-02-23T08:51:32.027Z,23.27
2019-02-23T08:53:08.113Z,15.77
2019-02-23T08:54:44.011Z,17.17
2019-02-23T08:56:20.423Z,16.47
2019-02-23T08:57:56.556Z,15.73
2019-02-23T08:59:32.640Z,17.57
2019-02-23T09:01:08.760Z,15.37
2019-02-23T09:02:44.829Z,11.27
2019-02-23T09:04:20.713Z,10.37
2019-02-23T09:05:56.786Z,9.20
2019-02-23T09:07:32.903Z,12.77
2019-02-23T09:09:10.195Z,8.40
2019-02-23T09:10:46.128Z,11.47
2019-02-23T09:12:22.248Z,14.57
2019-02-23T09:13:58.053Z,12.80
2019-02-23T09:15:34.094Z,14.60
2019-02-23T09:17:10.208Z,8.30
2019-02-23T09:18:46.159Z,9.70
2019-02-23T09:20:29.204Z,12.90
2019-02-23T09:21:59.660Z,16.23
2019-02-23T09:23:35.738Z,12.17
2019-02-23T09:25:12.352Z,12.73
2019-02-23T09:26:48.268Z,13.67
2019-02-23T09:28:24.244Z,12.20
2019-02-23T09:30:00.329Z,12.07
2019-02-23T09:31:36.374Z,11.50
2019-02-23T09:33:12.527Z,16.97
2019-02-23T09:34:48.609Z,17.73
2019-02-23T09:36:26.121Z,24.33
2019-02-23T09:38:01.992Z,17.37
2019-02-23T09:39:37.971Z,12.30
2019-02-23T09:41:13.922Z,17.50
2019-02-23T09:42:51.365Z,17.37
2019-02-23T09:44:27.408Z,14.40
2019-02-23T09:46:03.484Z,17.20
2019-02-23T09:47:39.615Z,22.47
2019-02-23T09:49:15.761Z,12.80
2019-02-23T09:50:51.854Z,6.17
2019-02-23T09:52:27.831Z,13.10
2019-02-23T09:54:03.987Z,13.80
2019-02-23T09:55:40.130Z,21.97
2019-02-23T09:57:16.209Z,12.40
2019-02-23T09:58:52.215Z,17.93
2019-02-23T10:00:28.255Z,15.63
2019-02-23T10:02:04.368Z,15.47
2019-02-23T10:03:40.405Z,13.97
2019-02-23T10:05:16.588Z,21.60
2019-02-23T10:06:53.949Z,14.30
2019-02-23T10:08:30.074Z,13.97
2019-02-23T10:10:11.303Z,16.47
2019-02-23T10:11:47.315Z,13.87
2019-02-23T10:13:23.289Z,14.20
2019-02-23T10:14:59.265Z,18.17
2019-02-23T10:16:35.346Z,18.80
2019-02-23T10:18:11.501Z,17.73
2019-02-23T10:19:47.470Z,18.30
2019-02-23T10:21:23.537Z,15.13
2019-02-23T10:22:59.436Z,13.50
2019-02-23T10:24:35.472Z,10.83
2019-02-23T10:26:11.443Z,12.27
2019-02-23T10:27:47.456Z,15.30
2019-02-23T10:29:23.350Z,14.93
2019-02-23T10:30:59.625Z,17.07
2019-02-23T10:32:35.665Z,14.53
2019-02-23T10:34:11.901Z,17.07
2019-02-23T10:35:47.898Z,23.80
2019-02-23T10:37:24.051Z,9.40
2019-02-23T10:39:00.044Z,25.43
2019-02-23T10:40:36.097Z,21.30
2019-02-23T10:42:12.318Z,21.07
2019-02-23T10:43:48.510Z,31.70
2019-02-23T10:45:24.737Z,19.87
2019-02-23T10:47:00.805Z,13.07
2019-02-23T10:48:37.195Z,15.40
2019-02-23T10:50:15.710Z,8.47
2019-02-23T10:51:51.772Z,13.77
2019-02-23T10:53:32.859Z,13.43
2019-02-23T10:55:11.050Z,13.37
2019-02-23T10:56:46.994Z,11.93
2019-02-23T10:58:23.000Z,14.97
2019-02-23T10:59:59.027Z,14.43
2019-02-23T11:01:35.198Z,12.47
2019-02-23T11:03:13.112Z,13.07
2019-02-23T11:04:49.261Z,13.87
2019-02-23T11:06:25.353Z,12.73
2019-02-23T11:08:01.563Z,11.53
2019-02-23T11:09:38.196Z,13.43
2019-02-23T11:11:14.326Z,17.73
2019-02-23T11:12:50.357Z,11.17
2019-02-23T11:14:26.321Z,13.33
2019-02-23T11:16:02.703Z,7.03
2019-02-23T11:17:38.760Z,11.77
2019-02-23T11:19:15.058Z,12.37
2019-02-23T11:20:51.179Z,16.47
2019-02-23T11:22:27.364Z,11.60
2019-02-23T11:24:03.462Z,19.87
2019-02-23T11:25:39.441Z,14.00
2019-02-23T11:27:15.725Z,14.10
2019-02-23T11:28:51.842Z,20.47
2019-02-23T11:30:28.081Z,14.47
2019-02-23T11:32:04.189Z,14.93
2019-02-23T11:33:40.225Z,16.10
2019-02-23T11:35:17.904Z,14.53
2019-02-23T11:36:54.068Z,13.37
2019-02-23T11:38:30.141Z,17.70
2019-02-23T11:40:09.985Z,12.97
2019-02-23T11:41:45.958Z,16.47
2019-02-23T11:43:22.001Z,13.97
2019-02-23T11:44:58.002Z,16.40
2019-02-23T11:46:34.044Z,13.23
2019-02-23T11:48:10.104Z,17.10
2019-02-23T11:49:46.202Z,17.77
2019-02-23T11:51:22.178Z,14.63
2019-02-23T11:52:58.271Z,15.90
2019-02-23T11:54:34.245Z,15.67
2019-02-23T11:56:10.388Z,17.73
2019-02-23T11:57:46.494Z,16.20
2019-02-23T11:59:22.582Z,15.67
2019-02-23T12:00:58.943Z,18.10
2019-02-23T12:02:34.852Z,15.97
2019-02-23T12:04:10.840Z,18.20
2019-02-23T12:05:47.046Z,17.90
2019-02-23T12:07:23.161Z,15.13
2019-02-23T12:08:59.372Z,15.03
2019-02-23T12:10:35.497Z,20.03
2019-02-23T12:12:11.608Z,13.90
2019-02-23T12:13:47.658Z,17.73
2019-02-23T12:15:23.683Z,18.17
2019-02-23T12:16:59.734Z,21.53
2019-02-23T12:18:35.943Z,21.60
2019-02-23T12:20:12.852Z,19.53
2019-02-23T12:21:48.952Z,17.47
2019-02-23T12:23:25.049Z,20.77
2019-02-23T12:25:01.091Z,17.77
2019-02-23T12:26:37.246Z,23.27
2019-02-23T12:28:13.334Z,19.93
2019-02-23T12:29:49.317Z,20.20
2019-02-23T12:31:25.371Z,20.03
2019-02-23T12:33:01.534Z,19.00
2019-02-23T12:34:37.634Z,24.77
2019-02-23T12:36:13.857Z,26.03
2019-02-23T12:37:50.559Z,19.70
2019-02-23T12:39:26.676Z,21.73
2019-02-23T12:41:02.594Z,20.70
2019-02-23T12:42:38.702Z,27.53
2019-02-23T12:44:14.928Z,22.03
2019-02-23T12:45:50.910Z,23.13
2019-02-23T12:47:27.145Z,25.50
2019-02-23T12:49:03.039Z,26.83
2019-02-23T12:50:39.252Z,24.70
2019-02-23T12:52:15.312Z,25.33
2019-02-23T12:53:51.431Z,24.23
2019-02-23T12:55:27.475Z,21.90
2019-02-23T12:57:03.579Z,19.93
2019-02-23T12:58:39.614Z,20.10
2019-02-23T13:00:19.619Z,23.00
2019-02-23T13:01:55.493Z,20.60
2019-02-23T13:03:31.563Z,19.40
2019-02-23T13:05:08.269Z,23.30
2019-02-23T13:06:44.470Z,19.33
2019-02-23T13:08:20.422Z,20.90
2019-02-23T13:09:56.539Z,23.57
2019-02-23T13:11:32.598Z,23.20
2019-02-23T13:13:41.862Z,26.27
2019-02-23T13:15:27.563Z,17.63
2019-02-23T13:17:33.591Z,18.50
2019-02-23T13:19:27.867Z,19.23
2019-02-23T13:21:34.250Z,24.67
2019-02-23T13:23:45.063Z,22.97
2019-02-23T13:25:34.299Z,20.63
2019-02-23T13:27:20.904Z,26.10
2019-02-23T13:29:20.846Z,25.97
2019-02-23T13:31:32.991Z,20.63
2019-02-23T13:33:22.036Z,21.17
2019-02-23T13:35:34.022Z,22.07
2019-02-23T13:37:33.865Z,21.97
2019-02-23T13:39:22.594Z,22.30
2019-02-23T13:41:21.295Z,23.10
2019-02-23T13:43:46.569Z,20.47
2019-02-23T13:45:39.101Z,21.70
2019-02-23T13:47:39.790Z,23.93
2019-02-23T13:49:46.805Z,22.17
2019-02-23T13:51:29.962Z,21.00
2019-02-23T13:53:22.150Z,17.70
2019-02-23T13:55:54.565Z,22.60
2019-02-23T13:57:52.562Z,19.23
2019-02-23T14:00:19.928Z,16.97
2019-02-23T14:02:30.649Z,17.03
2019-02-23T14:04:30.495Z,16.83
2019-02-23T14:06:34.773Z,17.80
2019-02-23T14:08:29.347Z,22.33
2019-02-23T14:10:38.155Z,23.20
2019-02-23T14:12:36.809Z,30.80
2019-02-23T14:14:29.027Z,21.80
2019-02-23T14:16:33.552Z,26.90
2019-02-23T14:19:06.170Z,25.63
2019-02-23T14:21:13.989Z,37.57
2019-02-23T14:23:28.669Z,21.13
2019-02-23T14:25:38.185Z,23.83
2019-02-23T14:27:51.369Z,25.77
2019-02-23T14:29:56.211Z,18.53
2019-02-23T14:31:51.529Z,27.43
2019-02-23T14:34:19.329Z,39.77
2019-02-23T14:36:11.749Z,33.23
2019-02-23T14:38:10.107Z,28.30
2019-02-23T14:39:56.710Z,30.57
2019-02-23T14:42:03.360Z,29.67
2019-02-23T14:44:14.178Z,35.07
2019-02-23T14:46:17.281Z,19.40
2019-02-23T14:48:18.766Z,18.30
2019-02-23T14:50:07.888Z,22.60
2019-02-23T14:52:23.467Z,15.13
2019-02-23T14:54:12.807Z,20.00
2019-02-23T14:55:58.774Z,18.30
2019-02-23T14:58:03.741Z,20.37
2019-02-23T14:59:53.170Z,20.00
2019-02-23T15:01:39.344Z,20.43
2019-02-23T15:03:48.853Z,18.53
2019-02-23T15:05:44.762Z,19.10
2019-02-23T15:07:40.102Z,18.07
2019-02-23T15:09:48.633Z,24.47
2019-02-23T15:11:52.242Z,28.90
2019-02-23T15:13:44.920Z,25.53
2019-02-23T15:15:48.294Z,23.43
2019-02-23T15:17:47.104Z,19.43
2019-02-23T15:19:36.170Z,19.10
2019-02-23T15:21:22.179Z,21.33
2019-02-23T15:23:11.415Z,20.10
2019-02-23T15:24:51.891Z,17.77
2019-02-23T15:26:47.010Z,17.67
2019-02-23T15:29:03.844Z,16.93
2019-02-23T15:30:49.947Z,17.30
2019-02-23T15:32:55.757Z,23.07
2019-02-23T15:34:57.357Z,18.70
2019-02-23T15:37:00.236Z,27.20
2019-02-23T15:38:44.824Z,26.63
2019-02-23T15:40:40.679Z,69.60
2019-02-23T15:42:42.601Z,37.83
2019-02-23T15:44:46.052Z,53.90
2019-02-23T15:46:44.567Z,85.80
2019-02-23T15:48:43.454Z,33.93
2019-02-23T15:50:19.635Z,25.77
2019-02-23T15:51:55.921Z,18.80
2019-02-23T15:53:31.813Z,21.03
2019-02-23T15:55:08.440Z,28.03
2019-02-23T15:56:44.648Z,25.33
2019-02-23T15:58:20.803Z,23.20
2019-02-23T15:59:56.702Z,22.13
2019-02-23T16:01:32.755Z,24.27
2019-02-23T16:03:08.723Z,18.77
2019-02-23T16:04:44.636Z,26.53
2019-02-23T16:06:20.693Z,20.60
2019-02-23T16:07:56.677Z,25.17
2019-02-23T16:09:32.720Z,26.00
2019-02-23T16:11:09.994Z,28.77
2019-02-23T16:12:46.088Z,26.80
2019-02-23T16:14:22.021Z,50.00
2019-02-23T16:15:58.110Z,49.10
2019-02-23T16:17:34.234Z,44.30
2019-02-23T16:19:10.207Z,48.63
2019-02-23T16:20:46.245Z,35.57
2019-02-23T16:22:22.388Z,31.50
2019-02-23T16:23:58.417Z,26.93
2019-02-23T16:25:38.344Z,28.60
2019-02-23T16:27:13.244Z,26.23
2019-02-23T16:28:49.302Z,27.80
2019-02-23T16:30:25.538Z,25.23
2019-02-23T16:32:01.614Z,25.93
2019-02-23T16:33:37.588Z,27.67
2019-02-23T16:35:13.537Z,25.47
2019-02-23T16:36:49.704Z,29.70
2019-02-23T16:38:25.646Z,27.87
2019-02-23T16:40:01.708Z,25.37
2019-02-23T16:41:37.875Z,28.57
2019-02-23T16:43:14.145Z,24.63
2019-02-23T16:44:50.137Z,26.43
2019-02-23T16:46:26.096Z,27.47
2019-02-23T16:48:02.058Z,31.33
2019-02-23T16:49:39.509Z,38.37
2019-02-23T16:51:15.584Z,44.37
2019-02-23T16:52:51.485Z,38.40
2019-02-23T16:54:27.566Z,39.40
2019-02-23T16:56:03.612Z,36.07
2019-02-23T16:57:39.690Z,34.60
2019-02-23T16:59:15.813Z,35.57
2019-02-23T17:00:52.040Z,36.47
2019-02-23T17:02:28.086Z,132.47
2019-02-23T17:04:04.252Z,506.60
2019-02-23T17:05:40.247Z,1300.37
2019-02-23T17:07:16.416Z,1363.73
2019-02-23T17:08:52.404Z,749.43
2019-02-23T17:10:29.953Z,590.10
2019-02-23T17:12:06.103Z,478.73
2019-02-23T17:13:42.318Z,247.83
2019-02-23T17:15:18.510Z,100.80
2019-02-23T17:16:55.909Z,70.33
2019-02-23T17:18:31.984Z,65.33
2019-02-23T17:20:09.765Z,62.90
2019-02-23T17:22:29.223Z,66.03
2019-02-23T17:24:05.380Z,66.30
2019-02-23T17:25:41.551Z,74.30
2019-02-23T17:27:17.455Z,75.83
2019-02-23T17:28:56.055Z,73.13
2019-02-23T17:30:32.309Z,77.33
2019-02-23T17:32:08.558Z,73.73
2019-02-23T17:33:44.644Z,67.50
2019-02-23T17:35:20.625Z,77.53
2019-02-23T17:36:56.787Z,86.30
2019-02-23T17:38:32.792Z,90.10
2019-02-23T17:40:09.892Z,156.67
2019-02-23T17:41:50.080Z,224.93
2019-02-23T17:43:27.946Z,203.57
2019-02-23T17:45:03.545Z,194.30
2019-02-23T17:46:39.788Z,192.80
2019-02-23T17:48:15.847Z,212.50
2019-02-23T17:49:51.941Z,164.97
2019-02-23T17:51:28.145Z,136.70
2019-02-23T17:53:04.306Z,114.70
2019-02-23T17:54:40.428Z,103.23
2019-02-23T17:56:16.353Z,100.93
2019-02-23T17:57:52.538Z,109.33
2019-02-23T17:59:30.403Z,98.20
2019-02-23T18:01:06.474Z,97.17
2019-02-23T18:02:42.461Z,97.27
2019-02-23T18:04:18.426Z,95.93
2019-02-23T18:05:54.640Z,95.43
2019-02-23T18:07:32.153Z,98.77
2019-02-23T18:09:08.217Z,90.13
2019-02-23T18:10:44.196Z,85.57
2019-02-23T18:12:20.346Z,87.77
2019-02-23T18:13:56.426Z,87.50
2019-02-23T18:15:32.582Z,85.10
2019-02-23T18:17:08.629Z,87.63
2019-02-23T18:18:44.810Z,78.57
2019-02-23T18:20:20.949Z,84.37
2019-02-23T18:21:57.035Z,75.40
2019-02-23T18:23:33.239Z,79.70
2019-02-23T18:25:10.231Z,72.10
2019-02-23T18:26:46.320Z,108.03
2019-02-23T18:28:22.409Z,142.67
2019-02-23T18:29:58.361Z,112.73
2019-02-23T18:31:34.424Z,75.60
2019-02-23T18:33:10.477Z,71.33
2019-02-23T18:34:47.151Z,71.73
2019-02-23T18:36:23.426Z,70.37
2019-02-23T18:37:59.414Z,73.73
2019-02-23T18:39:35.394Z,71.50
2019-02-23T18:41:11.480Z,84.57
2019-02-23T18:42:47.524Z,71.50
2019-02-23T18:44:23.992Z,73.20
2019-02-23T18:46:00.165Z,74.73
2019-02-23T18:47:36.249Z,108.63
2019-02-23T18:49:13.763Z,107.97
2019-02-23T18:50:49.790Z,98.73
2019-02-23T18:52:25.599Z,144.73
2019-02-23T18:54:01.621Z,159.33
2019-02-23T18:55:41.129Z,177.40
2019-02-23T18:57:15.643Z,166.50
2019-02-23T18:58:51.693Z,108.87
2019-02-23T19:00:27.816Z,236.63
2019-02-23T19:02:03.970Z,154.43
2019-02-23T19:03:39.989Z,167.73
2019-02-23T19:05:16.067Z,216.07
2019-02-23T19:06:52.057Z,263.07
2019-02-23T19:08:29.358Z,218.83
2019-02-23T19:10:09.591Z,116.30
2019-02-23T19:11:45.721Z,85.87
2019-02-23T19:13:21.705Z,59.33
2019-02-23T19:14:57.759Z,45.37
2019-02-23T19:16:36.208Z,56.83
2019-02-23T19:18:12.350Z,177.97
2019-02-23T19:19:48.351Z,225.33
2019-02-23T19:21:24.337Z,218.87
2019-02-23T19:23:00.476Z,189.27
2019-02-23T19:24:36.500Z,108.23
2019-02-23T19:26:12.585Z,93.87
2019-02-23T19:27:50.028Z,82.40
2019-02-23T19:29:25.954Z,99.23
2019-02-23T19:31:02.474Z,167.93
2019-02-23T19:32:38.604Z,146.30
2019-02-23T19:34:14.667Z,101.27
2019-02-23T19:35:50.669Z,73.77
2019-02-23T19:37:26.818Z,43.00
2019-02-23T19:39:03.009Z,149.00
2019-02-23T19:40:39.163Z,101.53
2019-02-23T19:42:15.316Z,223.17
2019-02-23T19:43:51.371Z,482.63
2019-02-23T19:45:27.461Z,481.70
2019-02-23T19:47:03.581Z,104.23
2019-02-23T19:48:39.675Z,124.73
2019-02-23T19:50:29.215Z,148.87
2019-02-23T19:52:05.331Z,82.13
2019-02-23T19:53:42.847Z,88.40
2019-02-23T19:55:18.902Z,204.23
2019-02-23T19:56:54.826Z,108.33
2019-02-23T19:58:30.832Z,118.30
2019-02-23T20:00:09.854Z,126.70
2019-02-23T20:01:45.901Z,137.87
2019-02-23T20:03:22.046Z,136.33
2019-02-23T20:04:58.033Z,133.13
2019-02-23T20:06:34.031Z,133.07
2019-02-23T20:08:10.083Z,155.43
2019-02-23T20:09:46.311Z,153.23
2019-02-23T20:11:24.398Z,238.43
2019-02-23T20:13:00.211Z,89.77
2019-02-23T20:14:36.390Z,38.60
2019-02-23T20:16:12.745Z,241.23
2019-02-23T20:17:48.702Z,131.80
2019-02-23T20:19:24.722Z,191.27
2019-02-23T20:21:03.433Z,107.23
2019-02-23T20:22:41.376Z,76.77
2019-02-23T20:24:17.420Z,54.40
2019-02-23T20:25:53.571Z,40.00
2019-02-23T20:27:29.755Z,29.90
2019-02-23T20:29:05.903Z,24.60
2019-02-23T20:30:42.003Z,29.40
2019-02-23T20:32:17.907Z,35.90
2019-02-23T20:33:53.824Z,49.80
2019-02-23T20:35:32.173Z,129.57
2019-02-23T20:37:08.631Z,229.73
2019-02-23T20:38:44.710Z,133.27
2019-02-23T20:40:20.773Z,253.87
2019-02-23T20:41:56.917Z,69.93
2019-02-23T20:43:32.903Z,39.10
2019-02-23T20:45:10.406Z,36.67
2019-02-23T20:46:46.583Z,28.70
2019-02-23T20:48:22.725Z,24.93
2019-02-23T20:49:59.765Z,28.23
2019-02-23T20:51:36.848Z,39.97
2019-02-23T20:53:12.874Z,227.97
2019-02-23T20:54:48.878Z,145.40
2019-02-23T20:56:25.164Z,69.03
2019-02-23T20:58:01.137Z,28.07
2019-02-23T20:59:37.140Z,67.57
2019-02-23T21:01:13.258Z,25.33
2019-02-23T21:02:50.729Z,48.13
2019-02-23T21:04:26.882Z,64.53
2019-02-23T21:06:02.922Z,93.23
2019-02-23T21:07:39.258Z,40.63
2019-02-23T21:09:15.453Z,288.90